createdAt,value
2019-03-02T00:01:50.998Z,6.43
2019-03-02T00:03:57.256Z,7.63
2019-03-02T00:08:12.528Z,7.53
2019-03-02T00:14:35.061Z,7.80
2019-03-02T00:16:43.320Z,9.00
2019-03-02T00:18:48.041Z,7.10
2019-03-02T00:20:55.589Z,7.30
2019-03-02T00:27:54.176Z,8.03
2019-03-02T00:30:00.423Z,7.50
2019-03-02T00:32:05.905Z,9.57
2019-03-02T00:34:28.783Z,9.30
2019-03-02T00:38:56.882Z,8.70
2019-03-02T00:41:21.960Z,9.77
2019-03-02T00:43:28.269Z,7.87
2019-03-02T00:45:57.335Z,10.10
2019-03-02T00:50:17.076Z,10.47
2019-03-02T00:52:23.672Z,11.43
2019-03-02T00:54:43.373Z,11.37
2019-03-02T00:56:58.172Z,11.73
2019-03-02T00:59:03.896Z,10.80
2019-03-02T01:01:34.166Z,12.80
2019-03-02T01:03:41.382Z,10.17
2019-03-02T01:05:47.358Z,11.03
2019-03-02T01:07:52.029Z,10.90
2019-03-02T01:09:56.698Z,11.07
2019-03-02T01:12:21.919Z,10.77
2019-03-02T01:14:28.733Z,9.77
2019-03-02T01:16:55.115Z,11.70
2019-03-02T01:19:00.278Z,10.87
2019-03-02T01:21:07.835Z,10.37
2019-03-02T01:23:14.101Z,12.00
2019-03-02T01:25:19.422Z,11.53
2019-03-02T01:27:25.123Z,10.67
2019-03-02T01:29:30.675Z,10.83
2019-03-02T01:31:36.825Z,11.90
2019-03-02T01:33:43.269Z,11.70
2019-03-02T01:36:06.983Z,12.30
2019-03-02T01:38:15.660Z,12.40
2019-03-02T01:40:19.847Z,11.40
2019-03-02T01:42:29.699Z,11.73
2019-03-02T01:46:40.896Z,12.70
2019-03-02T01:48:58.678Z,14.20
2019-03-02T01:51:15.506Z,14.33
2019-03-02T01:53:32.166Z,15.17
2019-03-02T01:55:37.129Z,13.70
2019-03-02T01:58:00.751Z,14.20
2019-03-02T02:00:10.450Z,13.03
2019-03-02T02:02:15.802Z,12.80
2019-03-02T02:04:22.752Z,12.13
2019-03-02T02:06:48.214Z,12.90
2019-03-02T02:08:53.539Z,10.20
2019-03-02T02:11:00.386Z,11.00
2019-03-02T02:13:07.154Z,9.27
2019-03-02T02:15:14.945Z,10.63
2019-03-02T02:17:19.945Z,10.30
2019-03-02T02:19:25.281Z,10.07
2019-03-02T02:21:29.862Z,10.63
2019-03-02T02:23:34.918Z,10.80
2019-03-02T02:25:40.567Z,9.23
2019-03-02T02:27:46.186Z,10.13
2019-03-02T02:29:53.079Z,9.20
2019-03-02T02:31:57.711Z,10.67
2019-03-02T02:34:02.789Z,9.90
2019-03-02T02:36:07.545Z,10.20
2019-03-02T02:38:16.277Z,10.67
2019-03-02T02:40:21.019Z,11.93
2019-03-02T02:42:28.117Z,10.07
2019-03-02T02:44:33.150Z,14.10
2019-03-02T02:46:40.024Z,16.40
2019-03-02T02:48:56.837Z,21.53
2019-03-02T02:51:04.451Z,21.77
2019-03-02T02:53:12.955Z,23.87
2019-03-02T02:55:29.478Z,22.87
2019-03-02T02:57:38.445Z,21.80
2019-03-02T02:59:43.181Z,20.53
2019-03-02T03:01:48.174Z,19.43
2019-03-02T03:03:54.757Z,19.77
2019-03-02T03:06:12.610Z,18.27
2019-03-02T03:08:32.221Z,20.43
2019-03-02T03:10:46.875Z,19.33
2019-03-02T03:12:52.090Z,20.10
2019-03-02T03:14:58.497Z,22.93
2019-03-02T03:17:03.444Z,27.30
2019-03-02T03:19:31.153Z,24.57
2019-03-02T03:21:53.843Z,28.50
2019-03-02T03:24:02.763Z,24.83
2019-03-02T03:26:05.099Z,19.20
2019-03-02T03:28:11.477Z,18.20
2019-03-02T03:30:16.627Z,16.00
2019-03-02T03:32:54.497Z,17.40
2019-03-02T03:34:58.725Z,15.80
2019-03-02T03:37:08.460Z,17.40
2019-03-02T03:39:48.218Z,15.90
2019-03-02T03:41:53.481Z,16.30
2019-03-02T03:43:58.738Z,17.53
2019-03-02T03:46:23.869Z,14.07
2019-03-02T03:50:48.045Z,14.77
2019-03-02T03:55:26.843Z,15.63
2019-03-02T03:59:53.747Z,16.77
2019-03-02T04:01:56.997Z,16.00
2019-03-02T04:04:02.373Z,16.07
2019-03-02T04:06:09.953Z,15.67
2019-03-02T04:08:14.859Z,16.17
2019-03-02T04:10:25.944Z,16.30
2019-03-02T04:12:27.826Z,18.37
2019-03-02T04:14:34.676Z,16.90
2019-03-02T04:16:41.229Z,18.50
2019-03-02T04:19:05.799Z,18.87
2019-03-02T04:21:11.144Z,17.57
2019-03-02T04:23:18.063Z,15.90
2019-03-02T04:25:23.624Z,19.00
2019-03-02T04:27:29.112Z,18.07
2019-03-02T04:29:34.044Z,18.50
2019-03-02T04:31:44.120Z,16.93
2019-03-02T04:33:48.709Z,20.00
2019-03-02T04:35:53.969Z,18.73
2019-03-02T04:38:00.744Z,18.90
2019-03-02T04:40:05.855Z,16.97
2019-03-02T04:42:11.758Z,18.23
2019-03-02T04:44:18.205Z,16.73
2019-03-02T04:46:23.652Z,18.63
2019-03-02T04:48:30.442Z,17.80
2019-03-02T04:50:37.720Z,18.23
2019-03-02T04:52:42.629Z,18.03
2019-03-02T04:54:47.374Z,17.80
2019-03-02T04:56:55.501Z,18.17
2019-03-02T04:58:59.042Z,16.87
2019-03-02T05:01:23.413Z,17.20
2019-03-02T05:03:28.707Z,18.83
2019-03-02T05:05:33.612Z,18.60
2019-03-02T05:07:38.786Z,18.50
2019-03-02T05:09:48.532Z,17.30
2019-03-02T05:12:03.802Z,18.47
2019-03-02T05:14:09.319Z,17.90
2019-03-02T05:16:14.900Z,17.57
2019-03-02T05:18:19.391Z,18.13
2019-03-02T05:20:43.203Z,18.40
2019-03-02T05:22:50.757Z,17.00
2019-03-02T05:24:54.621Z,18.87
2019-03-02T05:26:59.647Z,18.30
2019-03-02T05:29:04.323Z,19.43
2019-03-02T05:31:09.530Z,18.63
2019-03-02T05:33:14.391Z,20.47
2019-03-02T05:35:18.892Z,17.97
2019-03-02T05:37:23.489Z,17.20
2019-03-02T05:39:27.984Z,18.53
2019-03-02T05:41:35.666Z,19.03
2019-03-02T05:43:40.387Z,18.93
2019-03-02T05:46:08.999Z,18.70
2019-03-02T05:48:13.691Z,16.77
2019-03-02T05:50:41.326Z,18.77
2019-03-02T05:52:46.055Z,18.43
2019-03-02T05:55:04.783Z,20.13
2019-03-02T05:57:09.879Z,18.37
2019-03-02T05:59:16.883Z,20.30
2019-03-02T06:01:21.698Z,18.90
2019-03-02T06:03:46.033Z,19.90
2019-03-02T06:05:51.473Z,18.70
2019-03-02T06:08:00.477Z,20.30
2019-03-02T06:12:22.344Z,19.87
2019-03-02T06:14:38.919Z,20.47
2019-03-02T06:16:43.579Z,19.03
2019-03-02T06:18:49.026Z,20.10
2019-03-02T06:20:53.516Z,20.57
2019-03-02T06:23:00.318Z,19.87
2019-03-02T06:25:05.378Z,18.90
2019-03-02T06:27:11.829Z,19.37
2019-03-02T06:29:43.889Z,21.43
2019-03-02T06:31:55.073Z,20.80
2019-03-02T06:34:01.909Z,19.17
2019-03-02T06:36:08.677Z,21.23
2019-03-02T06:38:14.707Z,21.00
2019-03-02T06:40:23.673Z,20.83
2019-03-02T06:44:42.500Z,19.07
2019-03-02T06:46:48.446Z,19.60
2019-03-02T06:48:53.762Z,22.60
2019-03-02T06:51:02.602Z,21.93
2019-03-02T06:55:34.759Z,20.70
2019-03-02T06:57:46.170Z,20.30
2019-03-02T07:02:05.376Z,20.03
2019-03-02T07:04:17.961Z,20.00
2019-03-02T07:06:25.733Z,18.47
2019-03-02T07:08:51.855Z,20.87
2019-03-02T07:11:00.760Z,19.67
2019-03-02T07:13:08.436Z,19.07
2019-03-02T07:17:56.884Z,20.80
2019-03-02T07:20:14.201Z,20.17
2019-03-02T07:22:22.780Z,19.67
2019-03-02T07:24:30.180Z,21.43
2019-03-02T07:28:42.466Z,24.67
2019-03-02T07:30:49.277Z,22.87
2019-03-02T07:32:54.885Z,21.63
2019-03-02T07:35:00.028Z,22.03
2019-03-02T07:39:16.273Z,20.63
2019-03-02T07:41:23.127Z,20.27
2019-03-02T07:43:28.553Z,21.17
2019-03-02T07:45:34.769Z,18.13
2019-03-02T07:50:49.167Z,19.20
2019-03-02T07:53:01.186Z,17.30
2019-03-02T07:57:44.695Z,18.77
2019-03-02T08:00:19.622Z,18.07
2019-03-02T08:02:29.559Z,20.30
2019-03-02T08:04:50.870Z,17.20
2019-03-02T08:07:01.459Z,19.80
2019-03-02T08:09:08.249Z,20.83
2019-03-02T08:11:21.810Z,17.27
2019-03-02T08:13:39.804Z,18.63
2019-03-02T08:15:46.833Z,18.90
2019-03-02T08:17:51.975Z,19.97
2019-03-02T08:20:16.932Z,19.47
2019-03-02T08:22:22.752Z,16.97
2019-03-02T08:24:32.385Z,19.67
2019-03-02T08:26:37.694Z,20.10
2019-03-02T08:29:01.661Z,18.00
2019-03-02T08:31:08.936Z,19.20
2019-03-02T08:33:15.594Z,17.57
2019-03-02T08:35:40.983Z,19.00
2019-03-02T08:37:48.731Z,16.80
2019-03-02T08:40:11.865Z,19.53
2019-03-02T08:42:38.749Z,17.97
2019-03-02T08:44:46.259Z,17.57
2019-03-02T08:46:53.635Z,17.73
2019-03-02T08:49:09.427Z,17.50
2019-03-02T08:51:32.734Z,17.70
2019-03-02T08:53:58.073Z,18.50
2019-03-02T08:56:05.946Z,18.50
2019-03-02T08:58:11.665Z,18.60
2019-03-02T09:00:42.301Z,19.17
2019-03-02T09:03:44.541Z,16.93
2019-03-02T09:05:45.884Z,17.00
2019-03-02T09:08:08.287Z,17.67
2019-03-02T09:10:18.448Z,18.37
2019-03-02T09:12:25.697Z,17.70
2019-03-02T09:14:33.197Z,18.67
2019-03-02T09:16:45.124Z,19.40
2019-03-02T09:18:51.484Z,18.47
2019-03-02T09:21:09.021Z,18.87
2019-03-02T09:23:15.168Z,17.97
2019-03-02T09:25:20.228Z,18.10
2019-03-02T09:27:24.792Z,19.87
2019-03-02T09:29:30.297Z,17.97
2019-03-02T09:31:38.454Z,17.33
2019-03-02T09:33:43.941Z,19.07
2019-03-02T09:35:54.538Z,19.07
2019-03-02T09:37:56.662Z,19.00
2019-03-02T09:40:01.359Z,18.83
2019-03-02T09:42:06.384Z,17.93
2019-03-02T09:44:11.189Z,16.10
2019-03-02T09:46:21.222Z,18.90
2019-03-02T09:48:28.229Z,18.50
2019-03-02T09:50:32.941Z,17.57
2019-03-02T09:52:38.289Z,16.97
2019-03-02T09:54:44.073Z,18.57
2019-03-02T09:56:50.107Z,17.10
2019-03-02T09:58:58.001Z,15.87
2019-03-02T10:01:06.258Z,16.80
2019-03-02T10:03:23.075Z,16.90
2019-03-02T10:05:27.529Z,16.80
2019-03-02T10:07:34.549Z,15.37
2019-03-02T10:09:41.204Z,17.33
2019-03-02T10:11:47.246Z,16.03
2019-03-02T10:13:53.607Z,15.17
2019-03-02T10:16:00.611Z,16.63
2019-03-02T10:18:05.467Z,16.33
2019-03-02T10:20:12.540Z,16.33
2019-03-02T10:22:19.768Z,15.27
2019-03-02T10:24:25.193Z,15.80
2019-03-02T10:26:31.256Z,16.13
2019-03-02T10:28:36.016Z,15.77
2019-03-02T10:30:40.568Z,16.40
2019-03-02T10:32:45.652Z,14.10
2019-03-02T10:34:51.879Z,16.30
2019-03-02T10:36:56.568Z,15.80
2019-03-02T10:39:02.086Z,14.90
2019-03-02T10:41:16.706Z,15.20
2019-03-02T10:46:59.209Z,14.87
2019-03-02T10:49:06.907Z,15.10
2019-03-02T10:51:13.142Z,15.70
2019-03-02T10:53:20.732Z,14.97
2019-03-02T10:55:25.413Z,15.67
2019-03-02T10:57:30.171Z,15.40
2019-03-02T10:59:36.693Z,15.17
2019-03-02T11:01:43.594Z,16.63
2019-03-02T11:03:48.914Z,14.60
2019-03-02T11:06:04.542Z,14.47
2019-03-02T11:08:46.301Z,15.90
2019-03-02T11:11:21.949Z,15.20
2019-03-02T11:13:38.470Z,14.30
2019-03-02T11:15:49.124Z,14.37
2019-03-02T11:18:06.785Z,15.37
2019-03-02T11:20:31.840Z,15.60
2019-03-02T11:22:54.838Z,16.30
2019-03-02T11:25:24.080Z,15.77
2019-03-02T11:27:51.073Z,15.20
2019-03-02T11:30:05.676Z,15.03
2019-03-02T11:32:38.767Z,15.20
2019-03-02T11:35:00.854Z,13.43
2019-03-02T11:37:27.257Z,13.73
2019-03-02T11:39:42.124Z,15.20
2019-03-02T11:41:56.080Z,14.10
2019-03-02T11:44:37.174Z,15.17
2019-03-02T11:47:03.149Z,14.50
2019-03-02T11:49:16.439Z,15.20
2019-03-02T11:51:40.236Z,13.77
2019-03-02T11:54:09.920Z,14.13
2019-03-02T11:56:35.050Z,14.43
2019-03-02T11:58:59.018Z,15.80
2019-03-02T12:01:34.133Z,15.33
2019-03-02T12:04:15.263Z,13.63
2019-03-02T12:06:43.180Z,15.57
2019-03-02T12:09:23.214Z,14.73
2019-03-02T12:11:42.953Z,14.80
2019-03-02T12:14:14.352Z,15.17
2019-03-02T12:16:38.385Z,14.40
2019-03-02T12:19:00.889Z,15.80
2019-03-02T12:21:34.727Z,15.10
2019-03-02T12:24:03.979Z,15.13
2019-03-02T12:26:28.406Z,15.37
2019-03-02T12:28:57.861Z,15.60
2019-03-02T12:31:17.970Z,15.50
2019-03-02T12:33:33.748Z,17.30
2019-03-02T12:35:50.200Z,14.13
2019-03-02T12:38:07.277Z,14.60
2019-03-02T12:40:41.467Z,14.60
2019-03-02T12:43:07.448Z,16.20
2019-03-02T12:45:33.273Z,14.77
2019-03-02T12:47:55.722Z,15.90
2019-03-02T12:50:18.985Z,14.70
2019-03-02T12:52:48.217Z,16.37
2019-03-02T12:55:16.404Z,14.13
2019-03-02T12:57:45.472Z,14.17
2019-03-02T12:59:54.844Z,12.17
2019-03-02T13:02:21.927Z,13.53
2019-03-02T13:04:48.698Z,14.00
2019-03-02T13:07:19.006Z,12.97
2019-03-02T13:09:32.489Z,10.60
2019-03-02T13:12:08.175Z,10.90
2019-03-02T13:14:32.379Z,9.87
2019-03-02T13:17:10.797Z,10.10
2019-03-02T13:19:46.905Z,10.60
2019-03-02T13:22:01.939Z,11.87
2019-03-02T13:24:18.456Z,9.50
2019-03-02T13:26:31.140Z,10.00
2019-03-02T13:28:56.174Z,11.07
2019-03-02T13:31:22.875Z,9.20
2019-03-02T13:33:46.353Z,9.10
2019-03-02T13:36:09.044Z,8.57
2019-03-02T13:38:29.991Z,10.00
2019-03-02T13:40:49.568Z,8.53
2019-03-02T13:43:09.338Z,9.27
2019-03-02T13:45:39.762Z,8.33
2019-03-02T13:48:13.409Z,9.17
2019-03-02T13:50:47.719Z,8.20
2019-03-02T13:53:22.082Z,6.47
2019-03-02T13:55:36.369Z,6.97
2019-03-02T13:57:51.799Z,7.70
2019-03-02T14:00:34.069Z,8.83
2019-03-02T14:02:59.374Z,6.47
2019-03-02T14:05:22.152Z,6.90
2019-03-02T14:08:00.512Z,6.27
2019-03-02T14:10:27.334Z,6.23
2019-03-02T14:13:00.722Z,5.10
2019-03-02T14:15:21.911Z,4.77
2019-03-02T14:17:37.946Z,4.67
2019-03-02T14:20:02.528Z,5.33
2019-03-02T14:22:29.640Z,4.80
2019-03-02T14:24:46.918Z,4.77
2019-03-02T14:27:26.726Z,4.33
2019-03-02T14:29:38.317Z,4.97
2019-03-02T14:32:13.801Z,3.90
2019-03-02T14:34:27.926Z,4.40
2019-03-02T14:36:46.796Z,4.23
2019-03-02T14:39:11.706Z,4.63
2019-03-02T14:41:33.453Z,4.60
2019-03-02T14:43:57.137Z,5.10
2019-03-02T14:46:19.257Z,5.70
2019-03-02T14:48:49.238Z,5.07
2019-03-02T14:51:12.357Z,6.50
2019-03-02T14:53:47.356Z,5.90
2019-03-02T14:56:14.556Z,5.30
2019-03-02T14:58:47.378Z,5.90
2019-03-02T15:01:19.657Z,5.57
2019-03-02T15:03:47.615Z,5.73
2019-03-02T15:06:10.396Z,5.13
2019-03-02T15:08:37.202Z,5.87
2019-03-02T15:11:00.419Z,6.30
2019-03-02T15:13:29.352Z,6.20
2019-03-02T15:15:43.486Z,5.77
2019-03-02T15:18:06.365Z,5.17
2019-03-02T15:20:23.955Z,5.10
2019-03-02T15:22:48.524Z,4.77
2019-03-02T15:25:22.153Z,4.60
2019-03-02T15:28:04.027Z,5.07
2019-03-02T15:30:41.290Z,5.83
2019-03-02T15:33:24.005Z,5.30
2019-03-02T15:35:49.369Z,5.80
2019-03-02T15:38:10.395Z,4.37
2019-03-02T15:40:46.628Z,4.33
2019-03-02T15:43:08.625Z,5.80
2019-03-02T15:45:55.438Z,4.60
2019-03-02T15:48:10.807Z,5.40
2019-03-02T15:50:30.723Z,5.63
2019-03-02T15:52:50.639Z,5.60
2019-03-02T15:55:09.538Z,4.60
2019-03-02T15:57:23.041Z,4.80
2019-03-02T16:00:00.263Z,5.23
2019-03-02T16:02:25.044Z,4.07
2019-03-02T16:04:39.082Z,4.20
2019-03-02T16:07:05.050Z,4.10
2019-03-02T16:09:31.130Z,4.60
2019-03-02T16:11:44.488Z,3.27
2019-03-02T16:14:07.207Z,3.67
2019-03-02T16:16:30.533Z,3.53
2019-03-02T16:19:00.861Z,3.53
2019-03-02T16:21:36.303Z,3.30
2019-03-02T16:24:02.386Z,3.97
2019-03-02T16:26:25.045Z,3.40
2019-03-02T16:28:50.808Z,3.93
2019-03-02T16:31:08.157Z,3.90
2019-03-02T16:33:34.961Z,3.67
2019-03-02T16:36:17.287Z,3.70
2019-03-02T16:38:41.787Z,3.30
2019-03-02T16:41:04.540Z,2.97
2019-03-02T16:43:27.175Z,3.50
2019-03-02T16:48:39.426Z,3.10
2019-03-02T16:51:14.410Z,2.20
2019-03-02T16:53:40.846Z,2.60
2019-03-02T16:56:09.747Z,3.10
2019-03-02T16:58:41.167Z,2.87
2019-03-02T17:01:04.594Z,2.87
2019-03-02T17:03:32.193Z,2.53
2019-03-02T17:05:46.618Z,2.90
2019-03-02T17:08:13.266Z,2.57
2019-03-02T17:10:42.983Z,2.70
2019-03-02T17:13:06.021Z,3.50
2019-03-02T17:15:36.515Z,3.40
2019-03-02T17:17:55.337Z,3.50
2019-03-02T17:20:15.677Z,3.60
2019-03-02T17:22:32.494Z,3.17
2019-03-02T17:24:57.169Z,3.50
2019-03-02T17:27:07.961Z,3.50
2019-03-02T17:29:44.896Z,3.30
2019-03-02T17:31:59.325Z,2.67
2019-03-02T17:34:22.962Z,2.60
2019-03-02T17:36:49.615Z,3.37
2019-03-02T17:39:06.333Z,2.60
2019-03-02T17:41:29.316Z,2.90
2019-03-02T17:43:55.766Z,3.30
2019-03-02T17:46:14.182Z,2.97
2019-03-02T17:48:35.921Z,3.50
2019-03-02T17:50:59.651Z,2.83
2019-03-02T17:53:15.951Z,3.20
2019-03-02T17:55:46.381Z,3.27
2019-03-02T17:58:12.185Z,3.10
2019-03-02T18:00:48.141Z,3.30
2019-03-02T18:03:24.031Z,2.90
2019-03-02T18:05:34.573Z,3.10
2019-03-02T18:07:49.731Z,3.60
2019-03-02T18:10:02.913Z,3.37
2019-03-02T18:12:29.076Z,3.00
2019-03-02T18:14:51.101Z,3.23
2019-03-02T18:17:18.956Z,3.23
2019-03-02T18:19:23.053Z,2.93
2019-03-02T18:21:29.777Z,3.17
2019-03-02T18:23:35.445Z,3.57
2019-03-02T18:25:44.858Z,3.30
2019-03-02T18:27:50.150Z,3.90
2019-03-02T18:29:56.018Z,3.50
2019-03-02T18:32:03.972Z,3.80
2019-03-02T18:34:14.299Z,3.17
2019-03-02T18:36:20.707Z,3.20
2019-03-02T18:38:27.482Z,3.63
2019-03-02T18:41:23.892Z,2.90
2019-03-02T18:43:35.583Z,3.50
2019-03-02T18:46:05.095Z,4.00
2019-03-02T18:48:18.699Z,3.10
2019-03-02T18:54:11.845Z,3.30
2019-03-02T18:56:25.762Z,3.30
2019-03-02T18:58:38.672Z,4.07
2019-03-02T19:00:48.599Z,4.63
2019-03-02T19:02:53.448Z,4.40
2019-03-02T19:04:58.811Z,3.97
2019-03-02T19:07:12.195Z,3.50
2019-03-02T19:09:18.056Z,3.80
2019-03-02T19:11:23.405Z,4.00
2019-03-02T19:13:29.186Z,3.27
2019-03-02T19:15:33.740Z,3.63
2019-03-02T19:17:47.565Z,3.70
2019-03-02T19:19:54.785Z,3.67
2019-03-02T19:22:01.758Z,4.40
2019-03-02T19:24:06.407Z,3.87
2019-03-02T19:26:11.768Z,4.30
2019-03-02T19:28:17.357Z,4.03
2019-03-02T19:30:23.246Z,3.90
2019-03-02T19:32:50.165Z,4.30
2019-03-02T19:34:55.960Z,4.73
2019-03-02T19:37:01.007Z,4.37
2019-03-02T19:39:14.355Z,4.60
2019-03-02T19:41:24.584Z,4.73
2019-03-02T19:43:29.340Z,4.70
2019-03-02T19:45:35.429Z,4.80
2019-03-02T19:47:44.238Z,4.80
2019-03-02T19:49:55.068Z,5.87
2019-03-02T19:52:02.738Z,4.07
2019-03-02T19:54:09.024Z,5.90
2019-03-02T19:56:17.606Z,5.47
2019-03-02T19:58:25.945Z,5.57
2019-03-02T20:00:33.515Z,5.80
2019-03-02T20:02:41.528Z,5.37
2019-03-02T20:05:10.565Z,6.20
2019-03-02T20:07:17.998Z,6.40
2019-03-02T20:09:29.613Z,6.03
2019-03-02T20:11:37.119Z,6.40
2019-03-02T20:13:45.769Z,7.17
2019-03-02T20:15:52.000Z,6.93
2019-03-02T20:17:58.383Z,6.13
2019-03-02T20:20:08.814Z,7.00
2019-03-02T20:22:14.150Z,6.10
2019-03-02T20:24:23.069Z,5.23
2019-03-02T20:26:34.225Z,5.67
2019-03-02T20:28:43.434Z,6.10
2019-03-02T20:30:49.954Z,6.60
2019-03-02T20:33:04.807Z,17.60
2019-03-02T20:35:28.415Z,6.17
2019-03-02T20:37:39.213Z,6.20
2019-03-02T20:39:46.817Z,6.40
2019-03-02T20:41:54.256Z,6.07
2019-03-02T20:43:59.509Z,7.20
2019-03-02T20:46:04.906Z,6.20
2019-03-02T20:48:14.128Z,5.67
2019-03-02T20:50:22.191Z,5.70
2019-03-02T20:52:28.424Z,5.50
2019-03-02T20:54:34.140Z,5.80
2019-03-02T20:56:39.863Z,5.50
2019-03-02T20:58:48.637Z,6.50
2019-03-02T21:00:55.170Z,5.60
2019-03-02T21:03:01.785Z,5.03
2019-03-02T21:05:11.147Z,5.40
2019-03-02T21:07:16.942Z,5.23
2019-03-02T21:09:23.512Z,5.97
2019-03-02T21:11:31.240Z,5.33
2019-03-02T21:13:37.098Z,5.70
2019-03-02T21:15:42.710Z,5.60
2019-03-02T21:17:48.928Z,5.70
2019-03-02T21:19:55.420Z,4.90
2019-03-02T21:22:00.694Z,3.63
2019-03-02T21:24:07.398Z,4.77
2019-03-02T21:26:13.364Z,4.07
2019-03-02T21:28:18.468Z,4.30
2019-03-02T21:30:26.860Z,3.50
2019-03-02T21:32:33.815Z,3.37
2019-03-02T21:34:38.561Z,4.27
2019-03-02T21:36:43.187Z,3.17
2019-03-02T21:38:50.441Z,5.57
2019-03-02T21:40:55.427Z,3.17
2019-03-02T21:43:09.471Z,3.43
2019-03-02T21:45:15.928Z,3.00
2019-03-02T21:47:22.325Z,3.47
2019-03-02T21:49:27.784Z,3.43
2019-03-02T21:51:37.667Z,3.30
2019-03-02T21:53:42.908Z,4.47
2019-03-02T21:55:55.756Z,4.80
2019-03-02T21:58:14.577Z,4.30
2019-03-02T22:00:23.141Z,4.70
2019-03-02T22:02:28.929Z,3.40
2019-03-02T22:04:36.553Z,4.27
2019-03-02T22:06:42.929Z,4.00
2019-03-02T22:08:52.821Z,3.63
2019-03-02T22:11:05.363Z,4.50
2019-03-02T22:13:09.990Z,4.63
2019-03-02T22:15:17.289Z,4.47
2019-03-02T22:17:23.044Z,4.83
2019-03-02T22:19:28.036Z,5.10
2019-03-02T22:21:47.190Z,4.00
2019-03-02T22:23:52.005Z,4.70
2019-03-02T22:25:59.320Z,5.27
2019-03-02T22:28:14.859Z,4.37
2019-03-02T22:30:22.282Z,5.37
2019-03-02T22:32:29.237Z,5.43
2019-03-02T22:34:34.384Z,5.63
2019-03-02T22:36:39.909Z,4.80
2019-03-02T22:38:44.567Z,5.40
2019-03-02T22:40:49.174Z,5.60
2019-03-02T22:42:54.240Z,5.70
2019-03-02T22:45:02.356Z,5.73
2019-03-02T22:47:07.196Z,5.53
2019-03-02T22:49:15.546Z,6.10
2019-03-02T22:51:26.858Z,6.10
2019-03-02T22:53:34.343Z,6.87
2019-03-02T22:55:41.305Z,5.60
2019-03-02T22:57:48.568Z,6.40
2019-03-02T23:00:49.438Z,5.67
2019-03-02T23:02:52.545Z,5.07
2019-03-02T23:05:07.774Z,5.33
2019-03-02T23:07:12.395Z,5.30
2019-03-02T23:09:18.304Z,4.80
2019-03-02T23:11:23.431Z,4.83
2019-03-02T23:13:29.063Z,5.17
2019-03-02T23:15:34.489Z,4.50
2019-03-02T23:17:42.681Z,4.73
2019-03-02T23:19:48.194Z,3.73
2019-03-02T23:21:53.006Z,4.67
2019-03-02T23:23:59.667Z,4.47
2019-03-02T23:26:05.499Z,3.67
2019-03-02T23:28:15.667Z,4.50
2019-03-02T23:30:21.411Z,4.20
2019-03-02T23:32:28.360Z,4.53
2019-03-02T23:34:37.197Z,3.97
2019-03-02T23:36:41.722Z,4.13
2019-03-02T23:38:46.850Z,4.00
2019-03-02T23:40:51.875Z,4.83
2019-03-02T23:42:57.549Z,3.93
2019-03-02T23:45:02.210Z,4.13
2019-03-02T23:47:08.479Z,3.53
2019-03-02T23:49:14.715Z,4.33
2019-03-02T23:51:19.974Z,4.03
2019-03-02T23:53:26.069Z,4.97
2019-03-02T23:55:31.022Z,4.40
2019-03-02T23:57:39.933Z,3.57
2019-03-02T23:59:45.109Z,4.40
